sensor_id;sensor_type;location;lat;lon;timestamp;pressure;altitude;pressure_sealevel;temperature;humidity
12951;BME280;6540;50.858;7.232;2023-12-04T00:00:12;52050.22;;;-142.34;32.04
12951;BME280;6540;50.858;7.232;2023-12-04T00:02:37;52064.34;;;-142.34;30.44
12951;BME280;6540;50.858;7.232;2023-12-04T00:05:04;52046.19;;;-142.34;29.98
12951;BME280;6540;50.858;7.232;2023-12-04T00:07:30;52040.13;;;-142.34;31.62
12951;BME280;6540;50.858;7.232;2023-12-04T00:09:55;52028.03;;;-142.34;30.02
12951;BME280;6540;50.858;7.232;2023-12-04T00:12:20;52064.34;;;-142.34;30.13
12951;BME280;6540;50.858;7.232;2023-12-04T00:14:48;52052.25;;;-142.34;30.60
12951;BME280;6540;50.858;7.232;2023-12-04T00:17:14;52021.97;;;-142.34;31.11
12951;BME280;6540;50.858;7.232;2023-12-04T00:19:39;52056.28;;;-142.34;30.74
12951;BME280;6540;50.858;7.232;2023-12-04T00:22:05;52036.09;;;-142.34;31.82
12951;BME280;6540;50.858;7.232;2023-12-04T00:24:30;52032.06;;;-142.34;31.04
12951;BME280;6540;50.858;7.232;2023-12-04T00:26:55;52044.19;;;-142.34;31.76
12951;BME280;6540;50.858;7.232;2023-12-04T00:29:21;52068.38;;;-142.34;30.41
12951;BME280;6540;50.858;7.232;2023-12-04T00:31:46;52052.25;;;-142.34;30.07
12951;BME280;6540;50.858;7.232;2023-12-04T00:34:11;52064.34;;;-142.34;30.29
12951;BME280;6540;50.858;7.232;2023-12-04T00:36:37;52030.06;;;-142.34;30.53
12951;BME280;6540;50.858;7.232;2023-12-04T00:39:02;52019.97;;;-142.34;31.13
12951;BME280;6540;50.858;7.232;2023-12-04T00:41:29;52048.22;;;-142.34;29.92
12951;BME280;6540;50.858;7.232;2023-12-04T00:43:54;52044.19;;;-142.34;30.53
12951;BME280;6540;50.858;7.232;2023-12-04T00:46:19;52024.00;;;-142.34;29.93
12951;BME280;6540;50.858;7.232;2023-12-04T00:48:45;52036.09;;;-142.34;31.02
12951;BME280;6540;50.858;7.232;2023-12-04T00:51:11;52003.81;;;-142.34;29.27
12951;BME280;6540;50.858;7.232;2023-12-04T00:53:37;52040.13;;;-142.34;29.91
12951;BME280;6540;50.858;7.232;2023-12-04T00:56:02;52038.13;;;-142.34;30.79
12951;BME280;6540;50.858;7.232;2023-12-04T00:58:28;52060.31;;;-142.34;29.73
12951;BME280;6540;50.858;7.232;2023-12-04T01:00:53;52076.44;;;-142.34;29.97
12951;BME280;6540;50.858;7.232;2023-12-04T01:03:18;51995.75;;;-142.34;30.01
12951;BME280;6540;50.858;7.232;2023-12-04T01:05:43;52072.41;;;-142.34;28.27
12951;BME280;6540;50.858;7.232;2023-12-04T01:08:09;52052.25;;;-142.34;28.32
12951;BME280;6540;50.858;7.232;2023-12-04T01:10:34;52068.38;;;-142.34;29.04
12951;BME280;6540;50.858;7.232;2023-12-04T01:13:00;52050.22;;;-142.34;29.49
12951;BME280;6540;50.858;7.232;2023-12-04T01:15:25;52076.44;;;-142.34;29.75
12951;BME280;6540;50.858;7.232;2023-12-04T01:17:51;52032.06;;;-142.34;31.06
12951;BME280;6540;50.858;7.232;2023-12-04T01:20:16;52024.00;;;-142.34;29.20
12951;BME280;6540;50.858;7.232;2023-12-04T01:22:41;52064.34;;;-142.34;29.26
12951;BME280;6540;50.858;7.232;2023-12-04T01:25:07;52036.09;;;-142.34;30.00
12951;BME280;6540;50.858;7.232;2023-12-04T01:27:33;52046.19;;;-142.34;29.68
12951;BME280;6540;50.858;7.232;2023-12-04T01:30:01;52056.28;;;-142.34;29.21
12951;BME280;6540;50.858;7.232;2023-12-04T01:32:26;52036.09;;;-142.34;29.97
12951;BME280;6540;50.858;7.232;2023-12-04T01:34:51;52076.44;;;-142.34;29.75
12951;BME280;6540;50.858;7.232;2023-12-04T01:37:16;52062.34;;;-142.34;29.37
12951;BME280;6540;50.858;7.232;2023-12-04T01:39:42;52048.22;;;-142.34;29.42
12951;BME280;6540;50.858;7.232;2023-12-04T01:42:07;52106.72;;;-142.34;29.17
12951;BME280;6540;50.858;7.232;2023-12-04T01:44:32;52048.22;;;-142.34;30.41
12951;BME280;6540;50.858;7.232;2023-12-04T01:46:58;52076.44;;;-142.34;29.36
12951;BME280;6540;50.858;7.232;2023-12-04T01:49:23;52056.28;;;-142.34;28.66
12951;BME280;6540;50.858;7.232;2023-12-04T01:51:49;52032.06;;;-142.34;29.92
12951;BME280;6540;50.858;7.232;2023-12-04T01:54:15;52064.34;;;-142.34;31.07
12951;BME280;6540;50.858;7.232;2023-12-04T01:56:42;52011.91;;;-142.34;29.65
12951;BME280;6540;50.858;7.232;2023-12-04T01:59:07;52048.22;;;-142.34;31.02
12951;BME280;6540;50.858;7.232;2023-12-04T02:01:34;52036.09;;;-142.34;29.24
12951;BME280;6540;50.858;7.232;2023-12-04T02:04:02;52042.16;;;-142.34;28.65
12951;BME280;6540;50.858;7.232;2023-12-04T02:06:27;52032.06;;;-142.34;28.65
12951;BME280;6540;50.858;7.232;2023-12-04T02:08:53;52068.38;;;-142.34;29.65
12951;BME280;6540;50.858;7.232;2023-12-04T02:11:18;52040.13;;;-142.34;29.65
12951;BME280;6540;50.858;7.232;2023-12-04T02:13:44;52072.41;;;-142.34;29.41
12951;BME280;6540;50.858;7.232;2023-12-04T02:16:10;52064.34;;;-142.34;29.42
12951;BME280;6540;50.858;7.232;2023-12-04T02:18:36;52017.94;;;-142.34;30.60
12951;BME280;6540;50.858;7.232;2023-12-04T02:21:02;52019.97;;;-142.34;30.21
12951;BME280;6540;50.858;7.232;2023-12-04T02:23:28;52056.28;;;-142.34;29.99
12951;BME280;6540;50.858;7.232;2023-12-04T02:25:59;52046.19;;;-142.34;29.52
12951;BME280;6540;50.858;7.232;2023-12-04T02:28:29;52032.06;;;-142.34;28.89
12951;BME280;6540;50.858;7.232;2023-12-04T02:30:59;52048.22;;;-142.34;29.18
12951;BME280;6540;50.858;7.232;2023-12-04T02:33:25;52072.41;;;-142.34;30.25
12951;BME280;6540;50.858;7.232;2023-12-04T02:35:52;52028.03;;;-142.34;29.61
12951;BME280;6540;50.858;7.232;2023-12-04T02:38:18;52054.25;;;-142.34;29.97
12951;BME280;6540;50.858;7.232;2023-12-04T02:40:44;52052.25;;;-142.34;28.94
12951;BME280;6540;50.858;7.232;2023-12-04T02:43:09;52104.69;;;-142.34;28.84
12951;BME280;6540;50.858;7.232;2023-12-04T02:45:35;52082.50;;;-142.34;28.22
12951;BME280;6540;50.858;7.232;2023-12-04T02:48:00;52100.66;;;-142.34;30.77
12951;BME280;6540;50.858;7.232;2023-12-04T02:50:28;52038.13;;;-142.34;29.92
12951;BME280;6540;50.858;7.232;2023-12-04T02:52:53;52056.28;;;-142.34;29.26
12951;BME280;6540;50.858;7.232;2023-12-04T02:55:19;52056.28;;;-142.34;29.87
12951;BME280;6540;50.858;7.232;2023-12-04T02:57:44;52044.19;;;-142.34;30.97
12951;BME280;6540;50.858;7.232;2023-12-04T03:00:10;52015.94;;;-142.34;30.31
12951;BME280;6540;50.858;7.232;2023-12-04T03:02:35;52044.19;;;-142.34;29.53
12951;BME280;6540;50.858;7.232;2023-12-04T03:05:01;52064.34;;;-142.34;28.46
12951;BME280;6540;50.858;7.232;2023-12-04T03:07:29;52034.09;;;-142.34;29.30
12951;BME280;6540;50.858;7.232;2023-12-04T03:09:54;52042.16;;;-142.34;30.00
12951;BME280;6540;50.858;7.232;2023-12-04T03:12:19;52084.53;;;-142.34;29.18
12951;BME280;6540;50.858;7.232;2023-12-04T03:14:45;52032.06;;;-142.34;29.73
12951;BME280;6540;50.858;7.232;2023-12-04T03:17:10;52044.19;;;-142.34;30.21
12951;BME280;6540;50.858;7.232;2023-12-04T03:19:35;52044.19;;;-142.34;30.43
12951;BME280;6540;50.858;7.232;2023-12-04T03:22:01;52046.19;;;-142.34;29.95
12951;BME280;6540;50.858;7.232;2023-12-04T03:24:27;52052.25;;;-142.34;29.54
12951;BME280;6540;50.858;7.232;2023-12-04T03:26:52;52064.34;;;-142.34;28.63
12951;BME280;6540;50.858;7.232;2023-12-04T03:29:17;52088.56;;;-142.34;28.98
12951;BME280;6540;50.858;7.232;2023-12-04T03:31:43;52044.19;;;-142.34;27.83
12951;BME280;6540;50.858;7.232;2023-12-04T03:34:08;52056.28;;;-142.34;29.37
12951;BME280;6540;50.858;7.232;2023-12-04T03:36:33;52028.03;;;-142.34;30.07
12951;BME280;6540;50.858;7.232;2023-12-04T03:38:59;52054.25;;;-142.34;28.64
12951;BME280;6540;50.858;7.232;2023-12-04T03:41:24;52100.66;;;-142.34;30.28
12951;BME280;6540;50.858;7.232;2023-12-04T03:43:49;52072.41;;;-142.34;29.42
12951;BME280;6540;50.858;7.232;2023-12-04T03:46:15;52040.13;;;-142.34;29.97
12951;BME280;6540;50.858;7.232;2023-12-04T03:48:40;52056.28;;;-142.34;29.42
12951;BME280;6540;50.858;7.232;2023-12-04T03:51:06;52060.31;;;-142.34;29.92
12951;BME280;6540;50.858;7.232;2023-12-04T03:53:31;52060.31;;;-142.34;29.16
12951;BME280;6540;50.858;7.232;2023-12-04T03:55:59;52034.09;;;-142.34;29.31
12951;BME280;6540;50.858;7.232;2023-12-04T03:58:25;52030.06;;;-142.34;28.98
12951;BME280;6540;50.858;7.232;2023-12-04T04:00:50;52042.16;;;-142.34;29.11
12951;BME280;6540;50.858;7.232;2023-12-04T04:03:15;52060.31;;;-142.34;28.17
12951;BME280;6540;50.858;7.232;2023-12-04T04:05:41;52048.22;;;-142.34;29.83
12951;BME280;6540;50.858;7.232;2023-12-04T04:08:06;52052.25;;;-142.34;28.85
12951;BME280;6540;50.858;7.232;2023-12-04T04:10:33;52060.31;;;-142.34;30.17
12951;BME280;6540;50.858;7.232;2023-12-04T04:12:58;52068.38;;;-142.34;29.36
12951;BME280;6540;50.858;7.232;2023-12-04T04:15:23;52072.41;;;-142.34;30.12
12951;BME280;6540;50.858;7.232;2023-12-04T04:17:49;52076.44;;;-142.34;29.90
12951;BME280;6540;50.858;7.232;2023-12-04T04:20:14;52015.94;;;-142.34;30.27
12951;BME280;6540;50.858;7.232;2023-12-04T04:22:40;52024.00;;;-142.34;28.99
12951;BME280;6540;50.858;7.232;2023-12-04T04:25:06;52058.28;;;-142.34;29.29
12951;BME280;6540;50.858;7.232;2023-12-04T04:27:32;52054.25;;;-142.34;30.33
12951;BME280;6540;50.858;7.232;2023-12-04T04:29:58;52036.09;;;-142.34;29.51
12951;BME280;6540;50.858;7.232;2023-12-04T04:32:23;52056.28;;;-142.34;30.88
12951;BME280;6540;50.858;7.232;2023-12-04T04:34:49;52096.63;;;-142.34;28.77
12951;BME280;6540;50.858;7.232;2023-12-04T04:37:14;52074.44;;;-142.34;29.77
12951;BME280;6540;50.858;7.232;2023-12-04T04:39:40;52048.22;;;-142.34;29.67
12951;BME280;6540;50.858;7.232;2023-12-04T04:42:05;52013.91;;;-142.34;29.56
12951;BME280;6540;50.858;7.232;2023-12-04T04:44:31;52088.56;;;-142.34;29.25
12951;BME280;6540;50.858;7.232;2023-12-04T04:46:56;52056.28;;;-142.34;28.65
12951;BME280;6540;50.858;7.232;2023-12-04T04:49:21;52062.34;;;-142.34;29.36
12951;BME280;6540;50.858;7.232;2023-12-04T04:51:47;52032.06;;;-142.34;29.90
12951;BME280;6540;50.858;7.232;2023-12-04T04:54:12;52040.13;;;-142.34;28.80
12951;BME280;6540;50.858;7.232;2023-12-04T04:56:37;52074.44;;;-142.34;28.96
12951;BME280;6540;50.858;7.232;2023-12-04T04:59:03;52106.72;;;-142.34;31.21
12951;BME280;6540;50.858;7.232;2023-12-04T05:01:28;52072.41;;;-142.34;27.97
12951;BME280;6540;50.858;7.232;2023-12-04T05:03:54;52040.13;;;-142.34;28.80
12951;BME280;6540;50.858;7.232;2023-12-04T05:06:19;52048.22;;;-142.34;29.96
12951;BME280;6540;50.858;7.232;2023-12-04T05:08:44;52052.25;;;-142.34;29.46
12951;BME280;6540;50.858;7.232;2023-12-04T05:11:09;52044.19;;;-142.34;30.88
12951;BME280;6540;50.858;7.232;2023-12-04T05:13:35;52011.91;;;-142.34;29.65
12951;BME280;6540;50.858;7.232;2023-12-04T05:16:00;52036.09;;;-142.34;29.46
12951;BME280;6540;50.858;7.232;2023-12-04T05:18:26;52038.13;;;-142.34;30.43
12951;BME280;6540;50.858;7.232;2023-12-04T05:20:51;52050.22;;;-142.34;28.88
12951;BME280;6540;50.858;7.232;2023-12-04T05:23:16;52064.34;;;-142.34;30.07
12951;BME280;6540;50.858;7.232;2023-12-04T05:25:42;52084.53;;;-142.34;29.65
12951;BME280;6540;50.858;7.232;2023-12-04T05:28:07;52072.41;;;-142.34;29.69
12951;BME280;6540;50.858;7.232;2023-12-04T05:30:32;52038.13;;;-142.34;29.63
12951;BME280;6540;50.858;7.232;2023-12-04T05:32:58;52064.34;;;-142.34;27.95
12951;BME280;6540;50.858;7.232;2023-12-04T05:35:23;52080.50;;;-142.34;29.41
12951;BME280;6540;50.858;7.232;2023-12-04T05:37:48;52017.94;;;-142.34;28.62
12951;BME280;6540;50.858;7.232;2023-12-04T05:40:14;52056.28;;;-142.34;29.92
12951;BME280;6540;50.858;7.232;2023-12-04T05:42:39;52100.66;;;-142.34;29.82
12951;BME280;6540;50.858;7.232;2023-12-04T05:45:05;52013.91;;;-142.34;29.59
12951;BME280;6540;50.858;7.232;2023-12-04T05:47:32;52060.31;;;-142.34;29.93
12951;BME280;6540;50.858;7.232;2023-12-04T05:49:58;52032.06;;;-142.34;30.27
12951;BME280;6540;50.858;7.232;2023-12-04T05:52:23;52011.91;;;-142.34;30.70
12951;BME280;6540;50.858;7.232;2023-12-04T05:54:48;52054.25;;;-142.34;31.95
12951;BME280;6540;50.858;7.232;2023-12-04T05:57:14;52050.22;;;-142.34;30.69
12951;BME280;6540;50.858;7.232;2023-12-04T05:59:39;52011.91;;;-142.34;29.80
12951;BME280;6540;50.858;7.232;2023-12-04T06:02:04;52028.03;;;-142.34;29.21
12951;BME280;6540;50.858;7.232;2023-12-04T06:04:30;52028.03;;;-142.34;30.89
12951;BME280;6540;50.858;7.232;2023-12-04T06:06:55;52054.25;;;-142.34;31.11
12951;BME280;6540;50.858;7.232;2023-12-04T06:09:20;52068.38;;;-142.34;30.79
12951;BME280;6540;50.858;7.232;2023-12-04T06:11:46;52040.13;;;-142.34;29.89
12951;BME280;6540;50.858;7.232;2023-12-04T06:14:11;52066.38;;;-142.34;30.97
12951;BME280;6540;50.858;7.232;2023-12-04T06:16:37;52038.13;;;-142.34;30.82
12951;BME280;6540;50.858;7.232;2023-12-04T06:19:02;52036.09;;;-142.34;29.78
12951;BME280;6540;50.858;7.232;2023-12-04T06:21:29;52028.03;;;-142.34;31.03
12951;BME280;6540;50.858;7.232;2023-12-04T06:23:55;52048.22;;;-142.34;29.71
12951;BME280;6540;50.858;7.232;2023-12-04T06:26:21;52076.44;;;-142.34;30.19
12951;BME280;6540;50.858;7.232;2023-12-04T06:28:46;52046.19;;;-142.34;30.70
12951;BME280;6540;50.858;7.232;2023-12-04T06:31:12;52068.38;;;-142.34;30.41
12951;BME280;6540;50.858;7.232;2023-12-04T06:33:38;52017.94;;;-142.34;31.79
12951;BME280;6540;50.858;7.232;2023-12-04T06:36:05;52001.81;;;-142.34;30.62
12951;BME280;6540;50.858;7.232;2023-12-04T06:38:32;52028.03;;;-142.34;32.11
12951;BME280;6540;50.858;7.232;2023-12-04T06:41:00;52044.19;;;-142.34;30.26
12951;BME280;6540;50.858;7.232;2023-12-04T06:43:26;52038.13;;;-142.34;30.31
12951;BME280;6540;50.858;7.232;2023-12-04T06:45:53;52015.94;;;-142.34;28.14
12951;BME280;6540;50.858;7.232;2023-12-04T06:48:22;52054.25;;;-142.34;30.41
12951;BME280;6540;50.858;7.232;2023-12-04T06:50:47;52044.19;;;-142.34;28.50
12951;BME280;6540;50.858;7.232;2023-12-04T06:53:13;52060.31;;;-142.34;29.85
12951;BME280;6540;50.858;7.232;2023-12-04T06:55:38;52064.34;;;-142.34;30.20
12951;BME280;6540;50.858;7.232;2023-12-04T06:58:04;52072.41;;;-142.34;32.10
12951;BME280;6540;50.858;7.232;2023-12-04T07:00:29;52026.03;;;-142.34;29.86
12951;BME280;6540;50.858;7.232;2023-12-04T07:02:55;52040.13;;;-142.34;30.07
12951;BME280;6540;50.858;7.232;2023-12-04T07:05:20;52086.53;;;-142.34;31.11
12951;BME280;6540;50.858;7.232;2023-12-04T07:07:46;52046.19;;;-142.34;31.28
12951;BME280;6540;50.858;7.232;2023-12-04T07:10:11;52080.50;;;-142.34;29.26
12951;BME280;6540;50.858;7.232;2023-12-04T07:12:42;52044.19;;;-142.34;30.38
12951;BME280;6540;50.858;7.232;2023-12-04T07:15:09;52048.22;;;-142.34;31.70
12951;BME280;6540;50.858;7.232;2023-12-04T07:17:36;52044.19;;;-142.34;31.54
12951;BME280;6540;50.858;7.232;2023-12-04T07:20:01;52028.03;;;-142.34;30.29
12951;BME280;6540;50.858;7.232;2023-12-04T07:22:27;52056.28;;;-142.34;31.88
12951;BME280;6540;50.858;7.232;2023-12-04T07:24:52;52046.19;;;-142.34;29.43
12951;BME280;6540;50.858;7.232;2023-12-04T07:27:17;52068.38;;;-142.34;30.36
12951;BME280;6540;50.858;7.232;2023-12-04T07:29:43;52019.97;;;-142.34;30.52
12951;BME280;6540;50.858;7.232;2023-12-04T07:32:08;52024.00;;;-142.34;30.02
12951;BME280;6540;50.858;7.232;2023-12-04T07:34:33;52052.25;;;-142.34;30.70
12951;BME280;6540;50.858;7.232;2023-12-04T07:36:59;52050.22;;;-142.34;30.32
12951;BME280;6540;50.858;7.232;2023-12-04T07:39:24;51999.78;;;-142.34;30.38
12951;BME280;6540;50.858;7.232;2023-12-04T07:41:49;52062.34;;;-142.34;31.55
12951;BME280;6540;50.858;7.232;2023-12-04T07:44:15;52040.13;;;-142.34;30.62
12951;BME280;6540;50.858;7.232;2023-12-04T07:46:41;51975.59;;;-142.34;29.16
12951;BME280;6540;50.858;7.232;2023-12-04T07:49:06;52040.13;;;-142.34;29.19
12951;BME280;6540;50.858;7.232;2023-12-04T07:51:31;52044.19;;;-142.34;28.05
12951;BME280;6540;50.858;7.232;2023-12-04T07:53:57;52062.34;;;-142.34;27.98
12951;BME280;6540;50.858;7.232;2023-12-04T07:56:23;52066.38;;;-142.34;26.66
12951;BME280;6540;50.858;7.232;2023-12-04T07:58:48;52084.53;;;-142.34;29.63
12951;BME280;6540;50.858;7.232;2023-12-04T08:01:14;52084.53;;;-142.34;28.19
12951;BME280;6540;50.858;7.232;2023-12-04T08:03:40;52102.69;;;-142.34;26.67
12951;BME280;6540;50.858;7.232;2023-12-04T08:06:05;52076.44;;;-142.34;28.48
12951;BME280;6540;50.858;7.232;2023-12-04T08:08:31;52084.53;;;-142.34;28.69
12951;BME280;6540;50.858;7.232;2023-12-04T08:10:57;52072.41;;;-142.34;29.07
12951;BME280;6540;50.858;7.232;2023-12-04T08:13:22;52096.63;;;-142.34;29.36
12951;BME280;6540;50.858;7.232;2023-12-04T08:15:47;52032.06;;;-142.34;28.71
12951;BME280;6540;50.858;7.232;2023-12-04T08:18:13;52040.13;;;-142.34;28.88
12951;BME280;6540;50.858;7.232;2023-12-04T08:20:38;52056.28;;;-142.34;30.04
12951;BME280;6540;50.858;7.232;2023-12-04T08:23:04;52056.28;;;-142.34;28.33
12951;BME280;6540;50.858;7.232;2023-12-04T08:25:29;52062.34;;;-142.34;29.24
12951;BME280;6540;50.858;7.232;2023-12-04T08:27:55;52080.50;;;-142.34;29.29
12951;BME280;6540;50.858;7.232;2023-12-04T08:30:22;52062.34;;;-142.34;28.76
12951;BME280;6540;50.858;7.232;2023-12-04T08:32:48;52050.22;;;-142.34;28.53
12951;BME280;6540;50.858;7.232;2023-12-04T08:35:13;52056.28;;;-142.34;28.94
12951;BME280;6540;50.858;7.232;2023-12-04T08:37:39;52076.44;;;-142.34;28.85
12951;BME280;6540;50.858;7.232;2023-12-04T08:40:07;52007.84;;;-142.34;30.14
12951;BME280;6540;50.858;7.232;2023-12-04T08:42:33;52062.34;;;-142.34;28.50
12951;BME280;6540;50.858;7.232;2023-12-04T08:45:01;52003.81;;;-142.34;29.31
12951;BME280;6540;50.858;7.232;2023-12-04T08:47:27;52072.41;;;-142.34;27.96
12951;BME280;6540;50.858;7.232;2023-12-04T08:49:52;52072.41;;;-142.34;27.81
12951;BME280;6540;50.858;7.232;2023-12-04T08:52:18;52072.41;;;-142.34;28.50
12951;BME280;6540;50.858;7.232;2023-12-04T08:54:43;52052.25;;;-142.34;28.57
12951;BME280;6540;50.858;7.232;2023-12-04T08:57:09;52036.09;;;-142.34;28.34
12951;BME280;6540;50.858;7.232;2023-12-04T08:59:34;52044.19;;;-142.34;29.27
12951;BME280;6540;50.858;7.232;2023-12-04T09:02:00;52024.00;;;-142.34;28.24
12951;BME280;6540;50.858;7.232;2023-12-04T09:04:29;52028.03;;;-142.34;27.96
12951;BME280;6540;50.858;7.232;2023-12-04T09:06:55;52060.31;;;-142.34;27.73
12951;BME280;6540;50.858;7.232;2023-12-04T09:09:20;52098.66;;;-142.34;29.47
12951;BME280;6540;50.858;7.232;2023-12-04T09:11:46;52024.00;;;-142.34;28.50
12951;BME280;6540;50.858;7.232;2023-12-04T09:14:12;52096.63;;;-142.34;27.79
12951;BME280;6540;50.858;7.232;2023-12-04T09:16:38;52068.38;;;-142.34;28.41
12951;BME280;6540;50.858;7.232;2023-12-04T09:19:03;52062.34;;;-142.34;29.95
12951;BME280;6540;50.858;7.232;2023-12-04T09:21:29;52026.03;;;-142.34;29.95
12951;BME280;6540;50.858;7.232;2023-12-04T09:23:57;52040.13;;;-142.34;27.22
12951;BME280;6540;50.858;7.232;2023-12-04T09:26:23;52116.81;;;-142.34;27.64
12951;BME280;6540;50.858;7.232;2023-12-04T09:28:49;52074.44;;;-142.34;28.35
12951;BME280;6540;50.858;7.232;2023-12-04T09:31:16;52056.28;;;-142.34;29.28
12951;BME280;6540;50.858;7.232;2023-12-04T09:33:50;52078.47;;;-142.34;29.42
12951;BME280;6540;50.858;7.232;2023-12-04T09:36:16;52019.97;;;-142.34;30.26
12951;BME280;6540;50.858;7.232;2023-12-04T09:38:42;52062.34;;;-142.34;29.32
12951;BME280;6540;50.858;7.232;2023-12-04T09:41:09;52032.06;;;-142.34;28.92
12951;BME280;6540;50.858;7.232;2023-12-04T09:43:36;52048.22;;;-142.34;29.07
12951;BME280;6540;50.858;7.232;2023-12-04T09:46:01;52072.41;;;-142.34;30.36
12951;BME280;6540;50.858;7.232;2023-12-04T09:48:31;52019.97;;;-142.34;29.67
12951;BME280;6540;50.858;7.232;2023-12-04T09:50:57;52044.19;;;-142.34;28.74
12951;BME280;6540;50.858;7.232;2023-12-04T09:53:24;52058.28;;;-142.34;29.01
12951;BME280;6540;50.858;7.232;2023-12-04T09:55:51;52088.56;;;-142.34;29.03
12951;BME280;6540;50.858;7.232;2023-12-04T09:58:19;52024.00;;;-142.34;28.54
12951;BME280;6540;50.858;7.232;2023-12-04T10:00:46;52074.44;;;-142.34;29.61
12951;BME280;6540;50.858;7.232;2023-12-04T10:03:11;52017.94;;;-142.34;29.07
12951;BME280;6540;50.858;7.232;2023-12-04T10:05:43;52052.25;;;-142.34;28.46
12951;BME280;6540;50.858;7.232;2023-12-04T10:08:08;52036.09;;;-142.34;29.42
12951;BME280;6540;50.858;7.232;2023-12-04T10:10:34;52028.03;;;-142.34;30.02
12951;BME280;6540;50.858;7.232;2023-12-04T10:13:00;52046.19;;;-142.34;29.83
12951;BME280;6540;50.858;7.232;2023-12-04T10:15:25;52048.22;;;-142.34;28.02
12951;BME280;6540;50.858;7.232;2023-12-04T10:17:51;52072.41;;;-142.34;28.06
12951;BME280;6540;50.858;7.232;2023-12-04T10:20:17;52104.69;;;-142.34;28.85
12951;BME280;6540;50.858;7.232;2023-12-04T10:25:21;52036.09;;;-142.34;29.17
12951;BME280;6540;50.858;7.232;2023-12-04T10:27:48;52076.44;;;-142.34;28.75
12951;BME280;6540;50.858;7.232;2023-12-04T10:32:54;52056.28;;;-142.34;29.01
12951;BME280;6540;50.858;7.232;2023-12-04T10:35:19;52060.31;;;-142.34;28.68
12951;BME280;6540;50.858;7.232;2023-12-04T10:37:45;52056.28;;;-142.34;29.95
12951;BME280;6540;50.858;7.232;2023-12-04T10:40:10;52068.38;;;-142.34;30.34
12951;BME280;6540;50.858;7.232;2023-12-04T10:42:35;52056.28;;;-142.34;30.12
12951;BME280;6540;50.858;7.232;2023-12-04T10:45:01;52030.06;;;-142.34;29.97
12951;BME280;6540;50.858;7.232;2023-12-04T10:47:28;52072.41;;;-142.34;28.76
12951;BME280;6540;50.858;7.232;2023-12-04T10:49:54;52032.06;;;-142.34;28.34
12951;BME280;6540;50.858;7.232;2023-12-04T10:52:20;52066.38;;;-142.34;29.34
12951;BME280;6540;50.858;7.232;2023-12-04T10:54:47;52070.41;;;-142.34;28.32
12951;BME280;6540;50.858;7.232;2023-12-04T10:57:20;52076.44;;;-142.34;28.46
12951;BME280;6540;50.858;7.232;2023-12-04T10:59:47;52074.44;;;-142.34;27.48
12951;BME280;6540;50.858;7.232;2023-12-04T11:02:20;52062.34;;;-142.34;30.29
12951;BME280;6540;50.858;7.232;2023-12-04T11:04:49;52088.56;;;-142.34;29.21
12951;BME280;6540;50.858;7.232;2023-12-04T11:07:17;52048.22;;;-142.34;28.50
12951;BME280;6540;50.858;7.232;2023-12-04T11:09:44;52094.59;;;-142.34;29.02
12951;BME280;6540;50.858;7.232;2023-12-04T11:12:11;52040.13;;;-142.34;30.58
12951;BME280;6540;50.858;7.232;2023-12-04T11:14:44;52040.13;;;-142.34;31.67
12951;BME280;6540;50.858;7.232;2023-12-04T11:17:13;52015.94;;;-142.34;28.98
12951;BME280;6540;50.858;7.232;2023-12-04T11:19:52;52062.34;;;-142.34;29.26
12951;BME280;6540;50.858;7.232;2023-12-04T11:22:18;52032.06;;;-142.34;30.96
12951;BME280;6540;50.858;7.232;2023-12-04T11:24:47;52066.38;;;-142.34;30.56
12951;BME280;6540;50.858;7.232;2023-12-04T11:27:19;52112.75;;;-142.34;29.19
12951;BME280;6540;50.858;7.232;2023-12-04T11:29:46;52064.34;;;-142.34;31.04
12951;BME280;6540;50.858;7.232;2023-12-04T11:32:14;52026.03;;;-142.34;31.52
12951;BME280;6540;50.858;7.232;2023-12-04T11:34:50;52038.13;;;-142.34;31.15
12951;BME280;6540;50.858;7.232;2023-12-04T11:37:17;52060.31;;;-142.34;30.59
12951;BME280;6540;50.858;7.232;2023-12-04T11:39:42;52052.25;;;-142.34;30.76
12951;BME280;6540;50.858;7.232;2023-12-04T11:42:09;52048.22;;;-142.34;32.03
12951;BME280;6540;50.858;7.232;2023-12-04T11:44:34;52040.13;;;-142.34;31.70
12951;BME280;6540;50.858;7.232;2023-12-04T11:47:05;52058.28;;;-142.34;30.42
12951;BME280;6540;50.858;7.232;2023-12-04T11:49:31;52056.28;;;-142.34;30.81
12951;BME280;6540;50.858;7.232;2023-12-04T11:52:01;52076.44;;;-142.34;33.43
12951;BME280;6540;50.858;7.232;2023-12-04T11:54:59;52060.31;;;-142.34;30.85
12951;BME280;6540;50.858;7.232;2023-12-04T11:57:25;52036.09;;;-142.34;33.86
12951;BME280;6540;50.858;7.232;2023-12-04T11:59:52;52088.56;;;-142.34;30.04
12951;BME280;6540;50.858;7.232;2023-12-04T12:02:17;52054.25;;;-142.34;30.07
12951;BME280;6540;50.858;7.232;2023-12-04T12:04:43;52088.56;;;-142.34;30.01
12951;BME280;6540;50.858;7.232;2023-12-04T12:07:10;52019.97;;;-142.34;30.55
12951;BME280;6540;50.858;7.232;2023-12-04T12:09:39;52056.28;;;-142.34;30.54
12951;BME280;6540;50.858;7.232;2023-12-04T12:12:04;52064.34;;;-142.34;30.84
12951;BME280;6540;50.858;7.232;2023-12-04T12:14:30;52088.56;;;-142.34;31.05
12951;BME280;6540;50.858;7.232;2023-12-04T12:16:59;52032.06;;;-142.34;34.72
12951;BME280;6540;50.858;7.232;2023-12-04T12:19:24;52050.22;;;-142.34;35.72
12951;BME280;6540;50.858;7.232;2023-12-04T12:21:50;52009.88;;;-142.34;33.10
12951;BME280;6540;50.858;7.232;2023-12-04T12:24:17;52076.44;;;-142.34;31.76
12951;BME280;6540;50.858;7.232;2023-12-04T12:26:42;52072.41;;;-142.34;34.13
12951;BME280;6540;50.858;7.232;2023-12-04T12:29:08;52056.28;;;-142.34;32.86
12951;BME280;6540;50.858;7.232;2023-12-04T12:31:34;52017.94;;;-142.34;34.03
12951;BME280;6540;50.858;7.232;2023-12-04T12:34:00;52060.31;;;-142.34;32.20
12951;BME280;6540;50.858;7.232;2023-12-04T12:36:25;52048.22;;;-142.34;31.21
12951;BME280;6540;50.858;7.232;2023-12-04T12:38:51;52042.16;;;-142.34;35.64
12951;BME280;6540;50.858;7.232;2023-12-04T12:41:17;52080.50;;;-142.34;33.30
12951;BME280;6540;50.858;7.232;2023-12-04T12:43:43;52024.00;;;-142.34;33.85
12951;BME280;6540;50.858;7.232;2023-12-04T12:46:09;52044.19;;;-142.34;32.06
12951;BME280;6540;50.858;7.232;2023-12-04T12:48:35;52044.19;;;-142.34;33.71